Terminal Aerodrome Forecast
Issued by NWS

Home | Current Version | Previous Version | Graphics & Text | Print | Product List | Glossary On
Versions: 1 2 3 4 5 6 7 8 9 10 11 12 13 14 15 16 17 18
000
FTUS43 KMPX 162000 AAA
TAFAXN
TAF AMD
KAXN 162056Z 1621/1718 06018G23KT 2SM -SN BR SCT012 BKN025
      TEMPO 1621/1624 1/2SM SN FG BKN012
     FM170000 03018G24KT 3SM -SN OVC010
     FM170200 01015G21KT 4SM BR OVC020
     FM170600 35010KT P6SM BKN020=

USA.gov is the U.S. government's official web portal to all federal, state and local government web resources and services.